Time;durP1;ratioP1;P1;durP2;ratioP2;P2;SDS_P1;SDS_P2;PMS_P1;PMS_P2;Temp;Humidity;BMP_temperature;BMP_pressure;BME280_temperature;BME280_humidity;BME280_pressure;Samples;Min_cycle;Max_cycle;Signal;HPM_P1;HPM_P2
2020/12/19 00:00:14;;;;;;;;;15.75;13.75;;;;;;;;5018758;28;11560;-82
2020/12/19 00:02:42;;;;;;;;;16.00;13.50;;;;;;;;5022923;28;11632;-84
2020/12/19 00:05:09;;;;;;;;;17.75;17.75;;;;;;;;5014102;28;11561;-86
2020/12/19 00:07:36;;;;;;;;;13.75;13.75;;;;;;;;5027960;28;11553;-84
2020/12/19 00:10:04;;;;;;;;;14.00;10.00;;;;;;;;5026406;28;11206;-85
2020/12/19 00:12:32;;;;;;;;;13.25;13.25;;;;;;;;5026401;28;11506;-85
2020/12/19 00:14:59;;;;;;;;;25.75;17.50;;;;;;;;5016711;28;11546;-85
2020/12/19 00:17:26;;;;;;;;;14.75;14.75;;;;;;;;5023882;28;11573;-85
2020/12/19 00:19:53;;;;;;;;;19.00;16.50;;;;;;;;5020491;28;11516;-85
2020/12/19 00:22:21;;;;;;;;;15.50;12.25;;;;;;;;5024020;28;11630;-85
2020/12/19 00:24:48;;;;;;;;;18.25;17.25;;;;;;;;5026787;28;11601;-84
2020/12/19 00:27:15;;;;;;;;;19.00;19.00;;;;;;;;5025192;28;11570;-82
2020/12/19 00:29:43;;;;;;;;;14.75;14.75;;;;;;;;5029585;28;11610;-85
2020/12/19 00:32:11;;;;;;;;;21.50;17.75;;;;;;;;5027132;28;11483;-85
2020/12/19 00:34:38;;;;;;;;;15.00;15.00;;;;;;;;5022041;28;11559;-85
2020/12/19 00:37:04;;;;;;;;;13.00;10.50;;;;;;;;5016842;28;11524;-86
2020/12/19 00:39:31;;;;;;;;;16.00;14.75;;;;;;;;5016072;28;11524;-78
2020/12/19 00:41:58;;;;;;;;;19.25;17.75;;;;;;;;5027101;28;11545;-79
2020/12/19 00:44:24;;;;;;;;;16.75;16.75;;;;;;;;5020465;28;11586;-80
2020/12/19 00:46:53;;;;;;;;;12.00;11.75;;;;;;;;5025091;28;11536;-78
2020/12/19 00:49:20;;;;;;;;;15.75;15.75;;;;;;;;5025361;28;11553;-84
2020/12/19 00:51:47;;;;;;;;;14.00;11.00;;;;;;;;5021678;28;11537;-85
2020/12/19 00:54:15;;;;;;;;;19.25;18.50;;;;;;;;5024407;28;11510;-85
2020/12/19 00:56:42;;;;;;;;;14.00;14.00;;;;;;;;5021835;28;11476;-84
2020/12/19 00:59:09;;;;;;;;;15.50;15.50;;;;;;;;5037135;28;11558;-86
2020/12/19 01:01:36;;;;;;;;;17.50;13.50;;;;;;;;5023025;28;11475;-85
2020/12/19 01:04:03;;;;;;;;;15.50;14.25;;;;;;;;5022646;28;11517;-85
2020/12/19 01:06:30;;;;;;;;;15.00;15.00;;;;;;;;5023064;28;12295;-82
2020/12/19 01:08:58;;;;;;;;;20.25;15.75;;;;;;;;5018375;28;11529;-85
2020/12/19 01:11:27;;;;;;;;;14.25;13.25;;;;;;;;5019298;28;11525;-81
2020/12/19 01:13:54;;;;;;;;;14.25;14.00;;;;;;;;5021654;28;11624;-85
2020/12/19 01:16:22;;;;;;;;;15.25;14.50;;;;;;;;5023124;28;11552;-85
2020/12/19 01:18:50;;;;;;;;;15.75;15.75;;;;;;;;5024717;28;11533;-83
2020/12/19 01:21:19;;;;;;;;;15.50;14.75;;;;;;;;5021332;28;11572;-83
2020/12/19 01:23:46;;;;;;;;;19.50;15.25;;;;;;;;5027664;28;11537;-84
2020/12/19 01:26:13;;;;;;;;;18.50;16.50;;;;;;;;5018933;28;11593;-84
2020/12/19 01:28:40;;;;;;;;;17.25;15.50;;;;;;;;5030652;28;11539;-86
2020/12/19 01:31:08;;;;;;;;;15.00;15.00;;;;;;;;5017071;28;11489;-85
2020/12/19 01:33:36;;;;;;;;;16.75;16.75;;;;;;;;5023515;28;11606;-85
2020/12/19 01:36:03;;;;;;;;;15.00;13.75;;;;;;;;5017702;28;11541;-85
2020/12/19 01:38:31;;;;;;;;;17.00;14.50;;;;;;;;5016409;28;12396;-84
2020/12/19 01:40:58;;;;;;;;;18.00;18.00;;;;;;;;5022959;28;11528;-83
2020/12/19 01:43:25;;;;;;;;;16.75;15.75;;;;;;;;5031563;28;11529;-83
2020/12/19 01:45:52;;;;;;;;;15.50;15.25;;;;;;;;5023817;28;11563;-81
2020/12/19 01:48:22;;;;;;;;;13.75;12.75;;;;;;;;5017305;28;11541;-84
2020/12/19 01:50:50;;;;;;;;;16.50;16.50;;;;;;;;5017997;28;11544;-84
2020/12/19 01:53:18;;;;;;;;;20.25;19.75;;;;;;;;5018920;28;12278;-83
2020/12/19 01:55:46;;;;;;;;;14.75;14.75;;;;;;;;5013805;28;11569;-80
2020/12/19 01:58:13;;;;;;;;;17.00;17.00;;;;;;;;5020362;28;11556;-82
2020/12/19 02:00:40;;;;;;;;;13.75;11.50;;;;;;;;5018845;28;11527;-82
2020/12/19 02:03:07;;;;;;;;;14.25;14.00;;;;;;;;5023236;28;11572;-84
2020/12/19 02:05:36;;;;;;;;;21.50;17.50;;;;;;;;5023036;28;11637;-84
2020/12/19 02:08:04;;;;;;;;;13.00;13.00;;;;;;;;5019868;28;11517;-85
2020/12/19 02:10:32;;;;;;;;;20.50;18.25;;;;;;;;5020190;28;11573;-84
2020/12/19 02:13:00;;;;;;;;;16.50;16.50;;;;;;;;5021482;28;11572;-82
2020/12/19 02:15:27;;;;;;;;;18.00;18.00;;;;;;;;5023299;28;11900;-84
2020/12/19 02:17:54;;;;;;;;;10.25;9.00;;;;;;;;5020092;28;11585;-83
2020/12/19 02:20:20;;;;;;;;;18.75;17.25;;;;;;;;5022284;28;11553;-85
2020/12/19 02:22:47;;;;;;;;;18.50;15.50;;;;;;;;5014670;28;11558;-86
2020/12/19 02:25:15;;;;;;;;;15.00;15.00;;;;;;;;5019001;28;11542;-86
2020/12/19 02:27:42;;;;;;;;;21.25;18.25;;;;;;;;5017839;28;11566;-88
2020/12/19 02:30:09;;;;;;;;;15.50;15.50;;;;;;;;5024489;28;11567;-88
2020/12/19 02:32:35;;;;;;;;;21.75;19.00;;;;;;;;5024538;28;11520;-88
2020/12/19 02:35:03;;;;;;;;;17.00;14.75;;;;;;;;5024255;28;11594;-81
2020/12/19 02:37:29;;;;;;;;;17.25;16.00;;;;;;;;5017299;28;11556;-87
2020/12/19 02:39:56;;;;;;;;;18.75;16.25;;;;;;;;5018253;28;11554;-85
2020/12/19 02:42:24;;;;;;;;;16.25;16.25;;;;;;;;5025196;28;11518;-83
2020/12/19 02:44:51;;;;;;;;;14.00;14.00;;;;;;;;5014588;28;11531;-86
2020/12/19 02:47:18;;;;;;;;;16.50;15.00;;;;;;;;5025021;28;11493;-86
2020/12/19 02:49:45;;;;;;;;;18.25;15.75;;;;;;;;5013013;28;11544;-87
2020/12/19 02:52:11;;;;;;;;;15.00;15.00;;;;;;;;5020833;28;11578;-86
2020/12/19 02:54:38;;;;;;;;;13.50;13.25;;;;;;;;5020831;28;11539;-87
2020/12/19 02:57:05;;;;;;;;;16.00;14.25;;;;;;;;5021485;28;11563;-85
2020/12/19 02:59:33;;;;;;;;;14.00;14.00;;;;;;;;5019399;28;11654;-85
2020/12/19 03:02:00;;;;;;;;;21.75;18.75;;;;;;;;5021323;28;11502;-83
2020/12/19 03:04:27;;;;;;;;;20.50;19.00;;;;;;;;5016841;28;11575;-86
2020/12/19 03:06:53;;;;;;;;;24.50;19.00;;;;;;;;5023066;28;11535;-84
2020/12/19 03:09:20;;;;;;;;;14.75;14.75;;;;;;;;5012989;28;11537;-79
2020/12/19 03:11:47;;;;;;;;;18.75;18.75;;;;;;;;5019545;28;11406;-87
2020/12/19 03:14:13;;;;;;;;;18.50;16.50;;;;;;;;5014289;28;11578;-87
2020/12/19 03:16:41;;;;;;;;;21.75;18.75;;;;;;;;5017676;28;11690;-88
2020/12/19 03:19:08;;;;;;;;;18.75;17.75;;;;;;;;5048708;28;11697;-86
2020/12/19 03:21:34;;;;;;;;;23.00;17.50;;;;;;;;5015935;28;12410;-86
2020/12/19 03:24:01;;;;;;;;;17.50;13.75;;;;;;;;5020530;28;11555;-86
2020/12/19 03:26:28;;;;;;;;;15.25;15.00;;;;;;;;5020549;28;11548;-84
2020/12/19 03:28:55;;;;;;;;;20.75;18.00;;;;;;;;5017512;28;11553;-86
2020/12/19 03:31:21;;;;;;;;;22.75;19.75;;;;;;;;5019920;28;11494;-85
2020/12/19 03:33:49;;;;;;;;;16.50;15.00;;;;;;;;5030168;28;11520;-85
2020/12/19 03:36:16;;;;;;;;;19.00;16.75;;;;;;;;5014238;28;11572;-83
2020/12/19 03:38:43;;;;;;;;;19.50;14.25;;;;;;;;5015191;28;11546;-85
2020/12/19 03:41:09;;;;;;;;;16.00;14.25;;;;;;;;5021645;28;11530;-80
2020/12/19 03:43:37;;;;;;;;;18.50;16.75;;;;;;;;5021672;28;11522;-84
2020/12/19 03:46:04;;;;;;;;;13.25;13.25;;;;;;;;5022224;28;11552;-81
2020/12/19 03:48:30;;;;;;;;;19.00;15.50;;;;;;;;5020529;28;11480;-78
2020/12/19 03:50:58;;;;;;;;;17.75;14.00;;;;;;;;5011204;28;11555;-84
2020/12/19 03:53:25;;;;;;;;;16.00;16.00;;;;;;;;5023255;28;11556;-85
2020/12/19 03:55:52;;;;;;;;;20.25;15.75;;;;;;;;5015094;28;11543;-84
2020/12/19 03:58:19;;;;;;;;;13.75;13.75;;;;;;;;5019301;28;11576;-85
2020/12/19 04:00:46;;;;;;;;;15.00;15.00;;;;;;;;5019842;28;11483;-85
2020/12/19 04:03:13;;;;;;;;;14.25;14.25;;;;;;;;5036589;28;11546;-82
2020/12/19 04:05:40;;;;;;;;;18.50;15.25;;;;;;;;5008258;28;11135;-82
2020/12/19 04:08:08;;;;;;;;;20.00;14.25;;;;;;;;5011928;28;11254;-83
2020/12/19 04:10:35;;;;;;;;;13.25;13.25;;;;;;;;5039862;28;11327;-83
2020/12/19 04:13:02;;;;;;;;;12.50;10.75;;;;;;;;5017381;28;11133;-81
2020/12/19 04:15:29;;;;;;;;;13.75;11.75;;;;;;;;5015517;28;11191;-84
2020/12/19 04:17:55;;;;;;;;;15.50;13.75;;;;;;;;5021724;28;11297;-83
2020/12/19 04:20:22;;;;;;;;;13.00;13.00;;;;;;;;5021510;28;11156;-84
2020/12/19 04:22:49;;;;;;;;;12.50;12.00;;;;;;;;5023865;28;11061;-83
2020/12/19 04:25:17;;;;;;;;;11.25;11.25;;;;;;;;5014848;28;11065;-85
2020/12/19 04:27:44;;;;;;;;;12.25;11.25;;;;;;;;5023388;28;11061;-84
2020/12/19 04:30:11;;;;;;;;;15.00;15.00;;;;;;;;5026252;28;11124;-85
2020/12/19 04:32:38;;;;;;;;;14.00;13.00;;;;;;;;5021587;28;11010;-85
2020/12/19 04:35:05;;;;;;;;;11.50;11.50;;;;;;;;5023334;28;10990;-86
2020/12/19 04:37:32;;;;;;;;;13.75;12.00;;;;;;;;5021888;28;10901;-85
2020/12/19 04:39:59;;;;;;;;;12.00;10.50;;;;;;;;5022049;28;10998;-86
2020/12/19 04:42:26;;;;;;;;;15.25;14.00;;;;;;;;5021844;28;10967;-85
2020/12/19 04:44:53;;;;;;;;;11.75;9.75;;;;;;;;5023787;28;11727;-83
2020/12/19 04:47:20;;;;;;;;;10.75;9.25;;;;;;;;5021202;28;10948;-83
2020/12/19 04:49:47;;;;;;;;;12.50;12.50;;;;;;;;5024092;28;10909;-83
2020/12/19 04:52:14;;;;;;;;;14.75;12.25;;;;;;;;5015240;28;10930;-83
2020/12/19 04:54:41;;;;;;;;;16.00;14.25;;;;;;;;5023055;28;11028;-83
2020/12/19 04:57:16;;;;;;;;;14.50;10.75;;;;;;;;5049164;28;11012;-83
2020/12/19 04:59:44;;;;;;;;;14.25;12.00;;;;;;;;5023543;28;10883;-83
2020/12/19 05:02:11;;;;;;;;;15.75;11.75;;;;;;;;5022502;28;10924;-84
2020/12/19 05:04:38;;;;;;;;;10.75;10.75;;;;;;;;5022969;28;10934;-82
2020/12/19 05:07:07;;;;;;;;;10.00;10.00;;;;;;;;5018136;28;10924;-84
2020/12/19 05:09:37;;;;;;;;;9.00;9.00;;;;;;;;5023950;28;10936;-84
2020/12/19 05:12:04;;;;;;;;;9.50;9.50;;;;;;;;5017002;28;10873;-84
2020/12/19 05:14:32;;;;;;;;;10.75;7.75;;;;;;;;5027061;28;10884;-84
2020/12/19 05:17:00;;;;;;;;;9.00;9.00;;;;;;;;5023620;28;11828;-83
2020/12/19 05:19:28;;;;;;;;;10.00;7.00;;;;;;;;5017804;28;11088;-84
2020/12/19 05:21:55;;;;;;;;;12.25;7.75;;;;;;;;5020039;28;10981;-84
2020/12/19 05:24:28;;;;;;;;;10.75;9.50;;;;;;;;5028738;28;10966;-85
2020/12/19 05:26:56;;;;;;;;;10.75;9.50;;;;;;;;5018150;28;11014;-86
2020/12/19 05:29:23;;;;;;;;;9.00;9.00;;;;;;;;5022472;28;10869;-86
2020/12/19 05:31:58;;;;;;;;;7.75;7.00;;;;;;;;5020041;28;10938;-86
2020/12/19 05:34:26;;;;;;;;;9.50;9.25;;;;;;;;5019278;28;10870;-85
2020/12/19 05:36:54;;;;;;;;;10.00;10.00;;;;;;;;5024637;28;10951;-83
2020/12/19 05:39:21;;;;;;;;;10.00;10.00;;;;;;;;5015808;28;11038;-84
2020/12/19 05:41:49;;;;;;;;;11.25;9.50;;;;;;;;5020414;28;11079;-84
2020/12/19 05:44:19;;;;;;;;;7.00;7.00;;;;;;;;5018307;28;11815;-87
2020/12/19 05:46:47;;;;;;;;;9.75;9.75;;;;;;;;5019571;28;10798;-86
2020/12/19 05:49:16;;;;;;;;;5.50;5.50;;;;;;;;5029426;28;11073;-85
2020/12/19 05:51:45;;;;;;;;;9.75;7.00;;;;;;;;5018382;28;10748;-85
2020/12/19 05:54:13;;;;;;;;;7.00;7.00;;;;;;;;5025040;28;10608;-86
2020/12/19 05:56:41;;;;;;;;;10.00;7.00;;;;;;;;5020696;28;10777;-84
2020/12/19 05:59:12;;;;;;;;;10.00;8.50;;;;;;;;5019529;28;10738;-84
2020/12/19 06:01:41;;;;;;;;;10.25;10.25;;;;;;;;5022404;28;10593;-84
2020/12/19 06:04:09;;;;;;;;;9.75;9.00;;;;;;;;5021144;28;10686;-85
2020/12/19 06:06:39;;;;;;;;;9.50;6.75;;;;;;;;5016233;28;10721;-86
2020/12/19 06:09:07;;;;;;;;;10.25;8.50;;;;;;;;5021426;28;10674;-86
2020/12/19 06:11:42;;;;;;;;;8.25;8.25;;;;;;;;5018020;28;10631;-83
2020/12/19 06:14:11;;;;;;;;;7.00;7.00;;;;;;;;5023989;28;10572;-85
2020/12/19 06:16:41;;;;;;;;;7.00;7.00;;;;;;;;5022921;28;10327;-85
2020/12/19 06:19:14;;;;;;;;;6.00;6.00;;;;;;;;5021355;28;10456;-85
2020/12/19 06:21:48;;;;;;;;;5.75;5.75;;;;;;;;5022613;28;10444;-86
2020/12/19 06:24:43;;;;;;;;;8.00;6.00;;;;;;;;5028099;28;10300;-83
2020/12/19 06:27:11;;;;;;;;;6.00;6.00;;;;;;;;5020809;28;11332;-82
2020/12/19 06:29:39;;;;;;;;;6.00;6.00;;;;;;;;5025697;28;10655;-84
2020/12/19 06:32:06;;;;;;;;;7.00;7.00;;;;;;;;5020992;28;10348;-82
2020/12/19 06:34:34;;;;;;;;;8.00;8.00;;;;;;;;5021003;28;10401;-78
2020/12/19 06:37:06;;;;;;;;;6.00;6.00;;;;;;;;5019020;28;10552;-82
2020/12/19 06:39:33;;;;;;;;;7.00;7.00;;;;;;;;5018843;28;10397;-81
2020/12/19 06:42:01;;;;;;;;;7.00;7.00;;;;;;;;5016846;28;10438;-84
2020/12/19 06:44:32;;;;;;;;;10.00;7.25;;;;;;;;5013872;28;10515;-81
2020/12/19 06:47:00;;;;;;;;;8.00;6.00;;;;;;;;5017956;28;10412;-81
2020/12/19 06:49:37;;;;;;;;;9.50;6.75;;;;;;;;5015033;28;10416;-77
2020/12/19 06:52:09;;;;;;;;;5.50;5.50;;;;;;;;5012953;28;10415;-80
2020/12/19 06:54:37;;;;;;;;;10.00;7.75;;;;;;;;5015867;28;10366;-79
2020/12/19 06:57:07;;;;;;;;;7.00;5.50;;;;;;;;5021007;28;11167;-78
2020/12/19 06:59:34;;;;;;;;;6.75;6.00;;;;;;;;5022966;28;10348;-80
2020/12/19 07:02:17;;;;;;;;;6.50;5.00;;;;;;;;5004071;28;10226;-78
2020/12/19 07:04:45;;;;;;;;;11.50;11.00;;;;;;;;5021475;28;10245;-80
2020/12/19 07:07:13;;;;;;;;;9.50;9.50;;;;;;;;5010244;28;10518;-81
2020/12/19 07:09:40;;;;;;;;;6.00;6.00;;;;;;;;5016915;28;10538;-81
2020/12/19 07:12:28;;;;;;;;;6.00;6.00;;;;;;;;5022820;28;10326;-81
2020/12/19 07:14:55;;;;;;;;;7.50;7.50;;;;;;;;5013660;28;10392;-83
2020/12/19 07:17:22;;;;;;;;;6.25;6.25;;;;;;;;5018937;28;10352;-79
2020/12/19 07:19:57;;;;;;;;;7.50;7.50;;;;;;;;5015575;28;10390;-78
2020/12/19 07:22:24;;;;;;;;;5.00;5.00;;;;;;;;5018811;28;10269;-79
2020/12/19 07:24:52;;;;;;;;;6.25;6.25;;;;;;;;5013401;28;10326;-71
2020/12/19 07:27:20;;;;;;;;;5.00;5.00;;;;;;;;5019790;28;11481;-73
2020/12/19 07:29:47;;;;;;;;;6.75;4.50;;;;;;;;5011519;28;11150;-72
2020/12/19 07:32:14;;;;;;;;;5.00;5.00;;;;;;;;5010872;28;10156;-73
2020/12/19 07:34:41;;;;;;;;;4.25;4.25;;;;;;;;5014189;28;10278;-75
2020/12/19 07:37:09;;;;;;;;;5.50;5.50;;;;;;;;5017682;28;10160;-71
2020/12/19 07:39:36;;;;;;;;;2.25;2.25;;;;;;;;5019867;28;10168;-70
2020/12/19 07:42:05;;;;;;;;;5.00;5.00;;;;;;;;5021143;28;10141;-71
2020/12/19 07:44:34;;;;;;;;;6.00;6.00;;;;;;;;5008987;28;10248;-71
2020/12/19 07:47:05;;;;;;;;;3.75;3.75;;;;;;;;5019332;28;10187;-70
2020/12/19 07:49:37;;;;;;;;;4.00;4.00;;;;;;;;5020980;28;9879;-72
2020/12/19 07:52:10;;;;;;;;;6.25;6.25;;;;;;;;5019180;28;10046;-72
2020/12/19 07:54:38;;;;;;;;;6.25;6.25;;;;;;;;5015301;28;10093;-72
2020/12/19 07:57:05;;;;;;;;;7.75;6.00;;;;;;;;5015737;28;10195;-72
2020/12/19 07:59:34;;;;;;;;;6.75;6.75;;;;;;;;5014708;28;9897;-71
2020/12/19 08:02:05;;;;;;;;;4.75;3.25;;;;;;;;5016491;28;9919;-70
2020/12/19 08:04:32;;;;;;;;;4.25;4.25;;;;;;;;5021189;28;9947;-71
2020/12/19 08:07:00;;;;;;;;;5.50;5.50;;;;;;;;5019308;28;9786;-71
2020/12/19 08:09:27;;;;;;;;;3.25;3.25;;;;;;;;5019354;28;9808;-71
2020/12/19 08:11:59;;;;;;;;;2.00;2.00;;;;;;;;5013412;28;9716;-71
2020/12/19 08:14:27;;;;;;;;;5.25;4.25;;;;;;;;5020576;28;9638;-71
2020/12/19 08:16:56;;;;;;;;;4.25;3.00;;;;;;;;5015219;28;9842;-73
2020/12/19 08:19:31;;;;;;;;;4.75;3.25;;;;;;;;5016112;28;9653;-71
2020/12/19 08:22:02;;;;;;;;;3.00;3.00;;;;;;;;5013489;28;9705;-71
2020/12/19 08:24:30;;;;;;;;;1.25;1.25;;;;;;;;5015926;28;9644;-72
2020/12/19 08:27:25;;;;;;;;;3.00;2.00;;;;;;;;5018975;28;9636;-72
2020/12/19 08:30:01;;;;;;;;;3.00;3.00;;;;;;;;5021757;28;9641;-73
2020/12/19 08:32:30;;;;;;;;;2.75;2.75;;;;;;;;5018195;28;9704;-71
2020/12/19 08:34:57;;;;;;;;;5.75;4.00;;;;;;;;5022464;28;9625;-73
2020/12/19 08:37:24;;;;;;;;;4.50;3.25;;;;;;;;5019922;28;9626;-72
2020/12/19 08:40:08;;;;;;;;;2.00;0.75;;;;;;;;5020180;28;9634;-72
2020/12/19 08:42:36;;;;;;;;;4.25;3.00;;;;;;;;5017064;28;9589;-72
2020/12/19 08:45:23;;;;;;;;;3.75;3.75;;;;;;;;5023905;28;9855;-73
2020/12/19 08:47:56;;;;;;;;;4.50;4.50;;;;;;;;5018336;28;9617;-73
2020/12/19 08:50:32;;;;;;;;;5.00;5.00;;;;;;;;5037603;28;10507;-73
2020/12/19 08:53:15;;;;;;;;;3.00;3.00;;;;;;;;5022958;28;9753;-72
2020/12/19 08:55:42;;;;;;;;;5.75;3.75;;;;;;;;5019517;28;9577;-72
2020/12/19 08:58:19;;;;;;;;;4.50;4.50;;;;;;;;5009804;28;10392;-73
2020/12/19 09:00:46;;;;;;;;;3.50;3.00;;;;;;;;5015546;28;9556;-72
2020/12/19 09:03:14;;;;;;;;;7.25;4.00;;;;;;;;5016292;28;9722;-73
2020/12/19 09:05:43;;;;;;;;;4.50;4.50;;;;;;;;5014622;28;9581;-73
2020/12/19 09:08:11;;;;;;;;;3.00;3.00;;;;;;;;5019167;28;9811;-74
2020/12/19 09:10:38;;;;;;;;;6.00;6.00;;;;;;;;5016109;28;10424;-73
2020/12/19 09:13:26;;;;;;;;;5.00;3.50;;;;;;;;5012335;28;9788;-73
2020/12/19 09:15:56;;;;;;;;;3.00;3.00;;;;;;;;5008384;28;9817;-73
2020/12/19 09:18:25;;;;;;;;;3.75;2.50;;;;;;;;5018978;28;9606;-73
2020/12/19 09:20:54;;;;;;;;;7.00;7.00;;;;;;;;5012326;28;9645;-73
2020/12/19 09:23:22;;;;;;;;;4.50;4.50;;;;;;;;5014945;28;9720;-73
2020/12/19 09:25:49;;;;;;;;;5.25;4.00;;;;;;;;5020477;28;9830;-71
2020/12/19 09:28:16;;;;;;;;;4.00;4.00;;;;;;;;5018941;28;9904;-71
2020/12/19 09:30:43;;;;;;;;;3.25;2.00;;;;;;;;5015713;28;9873;-74
2020/12/19 09:33:10;;;;;;;;;5.50;5.50;;;;;;;;5014765;28;9786;-71
2020/12/19 09:35:39;;;;;;;;;4.00;4.00;;;;;;;;5009830;28;9727;-72
2020/12/19 09:38:06;;;;;;;;;6.00;6.00;;;;;;;;5012893;28;9827;-74
2020/12/19 09:40:33;;;;;;;;;6.00;4.00;;;;;;;;5011395;28;9708;-74
2020/12/19 09:43:00;;;;;;;;;3.00;3.00;;;;;;;;5014114;28;9741;-70
2020/12/19 09:45:27;;;;;;;;;4.25;4.25;;;;;;;;5014906;28;10528;-73
2020/12/19 09:47:55;;;;;;;;;8.00;6.00;;;;;;;;5014142;28;9879;-71
2020/12/19 09:50:22;;;;;;;;;7.00;5.50;;;;;;;;5010955;28;9661;-71
2020/12/19 09:52:50;;;;;;;;;5.25;3.25;;;;;;;;5017070;28;9858;-74
2020/12/19 09:55:17;;;;;;;;;7.00;5.50;;;;;;;;5009143;28;11095;-74
2020/12/19 09:57:44;;;;;;;;;5.00;5.00;;;;;;;;5021866;28;9857;-73
2020/12/19 10:00:12;;;;;;;;;6.00;6.00;;;;;;;;5013610;28;9792;-72
2020/12/19 10:02:39;;;;;;;;;3.75;3.75;;;;;;;;5014350;28;10701;-73
2020/12/19 10:05:07;;;;;;;;;7.50;6.00;;;;;;;;5014610;28;9829;-74
2020/12/19 10:07:34;;;;;;;;;7.00;5.50;;;;;;;;5014827;28;9799;-74
2020/12/19 10:10:03;;;;;;;;;6.00;6.00;;;;;;;;5014411;28;9909;-72
2020/12/19 10:12:30;;;;;;;;;6.00;6.00;;;;;;;;5016120;28;9869;-72
2020/12/19 10:14:57;;;;;;;;;7.00;5.50;;;;;;;;5020038;28;10660;-73
2020/12/19 10:17:23;;;;;;;;;4.50;4.50;;;;;;;;5008935;28;9909;-73
2020/12/19 10:19:50;;;;;;;;;6.00;6.00;;;;;;;;5016890;28;9843;-73
2020/12/19 10:22:18;;;;;;;;;8.50;6.75;;;;;;;;5014683;28;9891;-72
2020/12/19 10:24:44;;;;;;;;;3.50;3.50;;;;;;;;5013979;28;9885;-72
2020/12/19 10:27:13;;;;;;;;;6.00;3.50;;;;;;;;5010831;28;9727;-73
2020/12/19 10:29:40;;;;;;;;;4.50;4.50;;;;;;;;5017646;28;9738;-73
2020/12/19 10:32:08;;;;;;;;;6.25;4.00;;;;;;;;5010282;28;9617;-72
2020/12/19 10:34:34;;;;;;;;;6.00;4.50;;;;;;;;5010097;28;9664;-73
2020/12/19 10:37:01;;;;;;;;;6.25;4.00;;;;;;;;5012158;28;9716;-73
2020/12/19 10:39:28;;;;;;;;;6.00;6.00;;;;;;;;5011368;28;9879;-73
2020/12/19 10:41:55;;;;;;;;;10.00;10.00;;;;;;;;5012196;28;9737;-73
2020/12/19 10:44:24;;;;;;;;;5.50;5.50;;;;;;;;5008841;28;9816;-71
2020/12/19 10:46:51;;;;;;;;;7.25;6.50;;;;;;;;5014876;28;9713;-73
2020/12/19 10:49:17;;;;;;;;;10.50;7.00;;;;;;;;5004218;28;9732;-73
2020/12/19 10:51:44;;;;;;;;;9.00;7.50;;;;;;;;5017898;28;9731;-72
2020/12/19 10:54:10;;;;;;;;;5.50;5.50;;;;;;;;5021920;28;9556;-72
2020/12/19 10:56:37;;;;;;;;;4.75;4.00;;;;;;;;5019559;28;9719;-73
2020/12/19 10:59:04;;;;;;;;;7.00;7.00;;;;;;;;5019274;28;10502;-75
2020/12/19 11:01:32;;;;;;;;;8.25;7.00;;;;;;;;5009695;28;9767;-73
2020/12/19 11:03:59;;;;;;;;;9.25;7.25;;;;;;;;5014599;28;9800;-74
2020/12/19 11:06:29;;;;;;;;;11.00;8.00;;;;;;;;5016193;28;9798;-74
2020/12/19 11:08:56;;;;;;;;;7.00;4.50;;;;;;;;5009876;28;9721;-74
2020/12/19 11:11:23;;;;;;;;;6.50;6.50;;;;;;;;5019321;28;9711;-73
2020/12/19 11:13:50;;;;;;;;;6.75;6.75;;;;;;;;5017844;28;9627;-74
2020/12/19 11:16:24;;;;;;;;;9.75;9.00;;;;;;;;5017452;28;9796;-73
2020/12/19 11:18:51;;;;;;;;;7.00;7.00;;;;;;;;5022865;28;9927;-74
2020/12/19 11:21:18;;;;;;;;;10.25;10.25;;;;;;;;5017400;28;9834;-73
2020/12/19 11:23:45;;;;;;;;;7.25;7.25;;;;;;;;5010725;28;9809;-73
2020/12/19 11:26:15;;;;;;;;;7.50;6.00;;;;;;;;5017196;28;9796;-73
2020/12/19 11:28:42;;;;;;;;;7.75;7.75;;;;;;;;5021545;28;9826;-74
2020/12/19 11:31:09;;;;;;;;;6.50;6.50;;;;;;;;5024299;28;9826;-74
2020/12/19 11:33:35;;;;;;;;;7.25;7.25;;;;;;;;5025942;28;9718;-75
2020/12/19 11:36:03;;;;;;;;;7.50;7.50;;;;;;;;5023759;28;9802;-74
2020/12/19 11:38:30;;;;;;;;;10.25;6.50;;;;;;;;5028757;28;9825;-74
2020/12/19 11:40:57;;;;;;;;;10.75;7.00;;;;;;;;5015649;28;10337;-74
2020/12/19 11:43:24;;;;;;;;;11.75;9.00;;;;;;;;5016449;28;10566;-73
2020/12/19 11:45:50;;;;;;;;;9.00;7.75;;;;;;;;5021749;28;9733;-72
2020/12/19 11:48:17;;;;;;;;;7.75;7.75;;;;;;;;5015037;28;9723;-73
2020/12/19 11:50:45;;;;;;;;;8.50;8.25;;;;;;;;5023644;28;9675;-73
2020/12/19 11:53:12;;;;;;;;;7.00;7.00;;;;;;;;5016135;28;9802;-74
2020/12/19 11:55:39;;;;;;;;;7.75;7.75;;;;;;;;5022817;28;9642;-74
2020/12/19 11:58:06;;;;;;;;;10.75;7.50;;;;;;;;5020880;28;9583;-74
2020/12/19 12:00:33;;;;;;;;;6.25;6.25;;;;;;;;5015537;28;9665;-74
2020/12/19 12:03:00;;;;;;;;;7.00;7.00;;;;;;;;5020793;28;9720;-73
2020/12/19 12:05:27;;;;;;;;;9.00;9.00;;;;;;;;5025000;28;9679;-72
2020/12/19 12:07:54;;;;;;;;;6.00;6.00;;;;;;;;5023130;28;9676;-71
2020/12/19 12:10:21;;;;;;;;;7.50;7.50;;;;;;;;5024994;28;9659;-72
2020/12/19 12:12:48;;;;;;;;;8.00;6.50;;;;;;;;5022785;28;10527;-72
2020/12/19 12:15:15;;;;;;;;;7.25;7.00;;;;;;;;5018800;28;9667;-70
2020/12/19 12:17:42;;;;;;;;;7.00;7.00;;;;;;;;5020144;28;9645;-69
2020/12/19 12:20:08;;;;;;;;;8.50;6.75;;;;;;;;5022047;28;9515;-70
2020/12/19 12:22:35;;;;;;;;;6.00;6.00;;;;;;;;5016245;28;9600;-71
2020/12/19 12:25:02;;;;;;;;;4.50;4.00;;;;;;;;5011475;28;9428;-74
2020/12/19 12:27:31;;;;;;;;;8.25;6.75;;;;;;;;5016673;28;9591;-73
2020/12/19 12:29:57;;;;;;;;;7.25;7.25;;;;;;;;5017247;28;9566;-72
2020/12/19 12:32:25;;;;;;;;;8.00;6.00;;;;;;;;5018738;28;9682;-71
2020/12/19 12:34:51;;;;;;;;;12.25;6.50;;;;;;;;5016590;28;9614;-73
2020/12/19 12:37:18;;;;;;;;;6.00;6.00;;;;;;;;5027641;28;9482;-72
2020/12/19 12:39:45;;;;;;;;;8.50;7.75;;;;;;;;5018922;28;9502;-72
2020/12/19 12:42:12;;;;;;;;;8.75;7.25;;;;;;;;5023010;28;9483;-72
2020/12/19 12:44:40;;;;;;;;;8.25;7.00;;;;;;;;5018292;28;9645;-72
2020/12/19 12:47:06;;;;;;;;;8.75;7.00;;;;;;;;5019544;28;9574;-73
2020/12/19 12:49:33;;;;;;;;;8.50;8.50;;;;;;;;5017737;28;9520;-72
2020/12/19 12:52:00;;;;;;;;;7.00;6.33;;;;;;;;5017692;28;9464;-71
2020/12/19 12:54:27;;;;;;;;;8.00;8.00;;;;;;;;5013129;28;9378;-72
2020/12/19 12:56:54;;;;;;;;;12.50;8.00;;;;;;;;5029294;28;9485;-73
2020/12/19 12:59:21;;;;;;;;;8.75;8.00;;;;;;;;5020547;28;9656;-72
2020/12/19 13:01:49;;;;;;;;;7.00;7.00;;;;;;;;5012979;28;9422;-72
2020/12/19 13:04:16;;;;;;;;;10.50;10.50;;;;;;;;5006451;28;9571;-71
2020/12/19 13:06:43;;;;;;;;;9.25;8.00;;;;;;;;5027885;28;10244;-70
2020/12/19 13:09:11;;;;;;;;;6.00;6.00;;;;;;;;5014410;28;10337;-71
2020/12/19 13:11:38;;;;;;;;;10.00;10.00;;;;;;;;5016123;28;9501;-71
2020/12/19 13:14:04;;;;;;;;;9.00;9.00;;;;;;;;5020221;28;9348;-71
2020/12/19 13:16:32;;;;;;;;;11.75;9.25;;;;;;;;5016754;28;9409;-72
2020/12/19 13:18:59;;;;;;;;;9.00;9.00;;;;;;;;5013642;28;9970;-72
2020/12/19 13:21:26;;;;;;;;;9.00;9.00;;;;;;;;5023297;28;9434;-72
2020/12/19 13:23:53;;;;;;;;;16.00;14.33;;;;;;;;5020164;28;9423;-72
2020/12/19 13:26:20;;;;;;;;;11.00;9.00;;;;;;;;5018201;28;9405;-73
2020/12/19 13:28:47;;;;;;;;;8.67;7.33;;;;;;;;5017545;28;9424;-72
2020/12/19 13:31:14;;;;;;;;;8.67;8.00;;;;;;;;5023800;28;9216;-72
2020/12/19 13:33:41;;;;;;;;;9.00;9.00;;;;;;;;5019619;28;9279;-71
2020/12/19 13:36:09;;;;;;;;;11.33;11.00;;;;;;;;5018180;28;9190;-72
2020/12/19 13:38:36;;;;;;;;;8.00;8.00;;;;;;;;5021289;28;9317;-73
2020/12/19 13:41:03;;;;;;;;;9.00;7.00;;;;;;;;5018510;28;9202;-72
2020/12/19 13:43:29;;;;;;;;;11.33;11.33;;;;;;;;5013963;28;9391;-72
2020/12/19 13:45:56;;;;;;;;;14.67;13.00;;;;;;;;5018847;28;9345;-72
2020/12/19 13:48:23;;;;;;;;;9.00;8.00;;;;;;;;5016270;28;9256;-72
2020/12/19 13:50:49;;;;;;;;;9.00;9.00;;;;;;;;5020586;28;9372;-73
2020/12/19 13:53:17;;;;;;;;;8.00;7.00;;;;;;;;5019794;28;9215;-74
2020/12/19 13:55:44;;;;;;;;;9.00;9.00;;;;;;;;5021795;28;9169;-73
2020/12/19 13:58:11;;;;;;;;;7.33;7.33;;;;;;;;5017840;28;9971;-72
2020/12/19 14:00:38;;;;;;;;;11.00;8.67;;;;;;;;5020192;28;9328;-73
2020/12/19 14:03:05;;;;;;;;;10.00;8.67;;;;;;;;5017315;28;9408;-71
2020/12/19 14:05:32;;;;;;;;;6.00;6.00;;;;;;;;5015779;28;9321;-72
2020/12/19 14:07:58;;;;;;;;;7.67;7.33;;;;;;;;5014506;28;9746;-71
2020/12/19 14:10:26;;;;;;;;;7.00;7.00;;;;;;;;5021182;28;9225;-71
2020/12/19 14:12:53;;;;;;;;;9.00;7.00;;;;;;;;5014238;28;9278;-73
2020/12/19 14:15:21;;;;;;;;;7.00;7.00;;;;;;;;5017238;28;9151;-73
2020/12/19 14:17:48;;;;;;;;;7.67;7.67;;;;;;;;5012939;28;9089;-73
2020/12/19 14:20:15;;;;;;;;;7.00;6.33;;;;;;;;5013372;28;9301;-73
2020/12/19 14:22:41;;;;;;;;;8.67;7.00;;;;;;;;5014394;28;9123;-72
2020/12/19 14:25:08;;;;;;;;;5.67;5.33;;;;;;;;5015943;28;9317;-72
2020/12/19 14:27:36;;;;;;;;;5.33;5.33;;;;;;;;5013171;28;9271;-72
2020/12/19 14:30:05;;;;;;;;;6.00;6.00;;;;;;;;5013517;28;9346;-72
2020/12/19 14:32:32;;;;;;;;;7.00;5.67;;;;;;;;5009888;28;9449;-73
2020/12/19 14:34:59;;;;;;;;;7.00;7.00;;;;;;;;5028576;28;9268;-72
2020/12/19 14:37:31;;;;;;;;;8.00;8.00;;;;;;;;5020559;28;9229;-72
2020/12/19 14:39:59;;;;;;;;;9.00;7.33;;;;;;;;5010674;28;10208;-72
2020/12/19 14:42:26;;;;;;;;;9.33;9.33;;;;;;;;5018447;28;9283;-72